Time;durP1;ratioP1;P1;durP2;ratioP2;P2;SDS_P1;SDS_P2;PMS_P1;PMS_P2;Temp;Humidity;BMP_temperature;BMP_pressure;BME280_temperature;BME280_humidity;BME280_pressure;Samples;Min_cycle;Max_cycle;Signal;HPM_P1;HPM_P2
2021/08/16 00:01:01;;;;;;;5.57;4.20;;;;;;;24.25;65.78;95257.59;5000109;28;20785;-83
2021/08/16 00:03:29;;;;;;;7.50;3.88;;;;;;;24.24;64.38;95256.03;4989417;28;20741;-83
2021/08/16 00:05:55;;;;;;;5.35;4.03;;;;;;;24.20;65.29;95261.00;4989245;28;20323;-82
2021/08/16 00:08:22;;;;;;;4.47;3.65;;;;;;;24.22;64.57;95253.66;4989604;28;20230;-85
2021/08/16 00:10:49;;;;;;;4.78;3.78;;;;;;;24.23;65.63;95234.16;4990012;28;20199;-85
2021/08/16 00:13:15;;;;;;;4.50;3.53;;;;;;;24.27;65.79;95227.31;4990090;28;20207;-84
2021/08/16 00:15:41;;;;;;;6.13;3.83;;;;;;;24.24;66.16;95224.47;4993633;28;20211;-86
2021/08/16 00:18:08;;;;;;;5.72;4.18;;;;;;;24.23;66.93;95231.53;5002262;28;20647;-86
2021/08/16 00:20:39;;;;;;;6.10;4.07;;;;;;;24.24;66.80;95238.41;5013459;28;20213;-86
2021/08/16 00:23:05;;;;;;;5.35;4.03;;;;;;;24.23;67.67;95234.16;5013612;28;20664;-84
2021/08/16 00:25:32;;;;;;;5.45;4.70;;;;;;;24.17;67.80;95237.09;5013918;28;20207;-83
2021/08/16 00:27:58;;;;;;;5.97;4.57;;;;;;;24.09;69.15;95238.41;5016401;28;20211;-83
2021/08/16 00:30:25;;;;;;;7.30;4.85;;;;;;;24.07;69.52;95240.53;5014062;28;20666;-85
2021/08/16 00:32:51;;;;;;;6.78;4.90;;;;;;;24.08;69.81;95235.00;5014639;28;20258;-86
2021/08/16 00:35:26;;;;;;;5.45;4.82;;;;;;;23.99;70.88;95241.91;5013789;28;20697;-83
2021/08/16 00:37:54;;;;;;;7.78;5.47;;;;;;;24.01;71.27;95237.16;5014029;28;20202;-85
2021/08/16 00:40:20;;;;;;;7.85;5.38;;;;;;;24.02;71.61;95235.31;5013030;28;20203;-84
2021/08/16 00:42:48;;;;;;;6.25;5.10;;;;;;;24.06;71.58;95241.59;5012491;28;20226;-86
2021/08/16 00:45:15;;;;;;;7.32;5.25;;;;;;;24.06;71.96;95245.00;5006611;28;20659;-83
2021/08/16 00:47:42;;;;;;;6.00;5.40;;;;;;;24.04;71.50;95239.25;5012688;28;20614;-83
2021/08/16 00:50:11;;;;;;;7.07;5.20;;;;;;;24.04;71.93;95238.47;5012663;28;20721;-85
2021/08/16 00:52:38;;;;;;;10.00;5.80;;;;;;;24.03;71.92;95242.94;5012079;28;20219;-83
2021/08/16 00:55:07;;;;;;;8.07;5.88;;;;;;;24.00;72.26;95247.94;5012150;28;20261;-84
2021/08/16 00:57:39;;;;;;;9.05;6.35;;;;;;;23.88;73.92;95260.59;5012405;28;20214;-83
2021/08/16 01:00:09;;;;;;;11.73;5.97;;;;;;;23.89;73.91;95265.56;5012422;28;20205;-84
2021/08/16 01:02:38;;;;;;;7.85;5.78;;;;;;;23.83;75.49;95245.63;5011752;28;20234;-82
2021/08/16 01:05:06;;;;;;;10.88;6.60;;;;;;;23.72;75.66;95241.44;5011806;28;20203;-84
2021/08/16 01:07:33;;;;;;;8.55;6.40;;;;;;;23.65;77.39;95233.06;5012431;28;20726;-86
2021/08/16 01:10:01;;;;;;;11.82;6.78;;;;;;;23.64;78.17;95257.78;5012270;28;20203;-83
2021/08/16 01:12:30;;;;;;;11.15;6.60;;;;;;;23.52;78.88;95263.31;5011874;28;20226;-84
2021/08/16 01:14:56;;;;;;;9.00;6.30;;;;;;;23.39;78.88;95224.41;5012439;28;20210;-82
2021/08/16 01:17:23;;;;;;;8.60;6.72;;;;;;;23.31;79.21;95217.06;5012444;28;20203;-85
2021/08/16 01:19:50;;;;;;;9.27;6.05;;;;;;;23.17;77.11;95250.16;4994475;28;20294;-83
2021/08/16 01:22:17;;;;;;;8.32;5.63;;;;;;;23.18;76.06;95267.50;4992355;28;20246;-84
2021/08/16 01:24:44;;;;;;;8.98;5.80;;;;;;;23.14;76.03;95288.25;5002205;28;20195;-88
2021/08/16 01:27:16;;;;;;;8.35;4.70;;;;;;;22.77;74.33;95379.53;5012753;28;20203;-86
2021/08/16 01:29:42;;;;;;;10.18;4.70;;;;;;;22.71;77.35;95273.72;5012216;28;20206;-84
2021/08/16 01:32:09;;;;;;;6.75;4.47;;;;;;;22.76;80.28;95258.00;5012392;28;20238;-84
2021/08/16 01:34:36;;;;;;;5.65;3.90;;;;;;;22.72;80.65;95247.22;5012051;28;20206;-86
2021/08/16 01:37:03;;;;;;;8.77;4.78;;;;;;;22.75;82.76;95241.44;5012153;28;20203;-87
2021/08/16 01:39:30;;;;;;;5.40;4.85;;;;;;;22.84;84.97;95256.72;5012002;28;20203;-86
2021/08/16 01:41:57;;;;;;;9.30;4.78;;;;;;;22.89;82.30;95259.38;5011738;28;20227;-84
2021/08/16 01:44:25;;;;;;;6.07;4.97;;;;;;;22.82;86.43;95271.94;5010984;28;20199;-85
2021/08/16 01:46:54;;;;;;;7.38;4.90;;;;;;;22.85;84.88;95287.97;5011317;28;20207;-84
2021/08/16 01:49:20;;;;;;;10.02;5.13;;;;;;;22.97;84.91;95288.50;5011269;28;20581;-87
2021/08/16 01:51:48;;;;;;;9.82;5.85;;;;;;;23.00;83.64;95289.81;5011478;28;20226;-86
2021/08/16 01:54:17;;;;;;;6.28;5.22;;;;;;;22.98;83.53;95284.84;5011177;28;20736;-86
2021/08/16 01:56:44;;;;;;;10.10;5.68;;;;;;;23.05;83.87;95271.47;5010836;28;20222;-85
2021/08/16 01:59:11;;;;;;;8.32;5.78;;;;;;;22.97;86.29;95271.97;5011061;28;20210;-84
2021/08/16 02:01:39;;;;;;;8.05;5.88;;;;;;;23.04;87.12;95270.66;5010722;28;20237;-87
2021/08/16 02:04:06;;;;;;;9.68;5.97;;;;;;;23.13;87.31;95272.75;5010760;28;20210;-86
2021/08/16 02:06:32;;;;;;;7.88;5.88;;;;;;;23.17;84.76;95264.09;5011483;28;20230;-87
2021/08/16 02:08:59;;;;;;;9.23;6.80;;;;;;;23.20;84.34;95262.78;5016735;28;20194;-87
2021/08/16 02:11:25;;;;;;;9.57;7.00;;;;;;;23.22;85.88;95261.47;5012331;28;20226;-85
2021/08/16 02:13:52;;;;;;;8.48;6.93;;;;;;;23.21;87.58;95252.00;5012127;28;20209;-84
2021/08/16 02:16:18;;;;;;;9.07;6.90;;;;;;;23.16;87.19;95251.22;5012425;28;20203;-85
2021/08/16 02:18:46;;;;;;;8.48;6.53;;;;;;;23.14;85.52;95237.56;5012397;28;20203;-84
2021/08/16 02:21:13;;;;;;;9.65;7.13;;;;;;;23.12;86.06;95229.16;5012593;28;20226;-85
2021/08/16 02:23:39;;;;;;;14.15;6.95;;;;;;;23.11;85.41;95236.25;5012314;28;20218;-86
2021/08/16 02:26:06;;;;;;;8.82;6.68;;;;;;;23.16;85.27;95224.94;5012467;28;20199;-86
2021/08/16 02:28:34;;;;;;;7.15;6.32;;;;;;;23.23;85.00;95231.53;5012497;28;20234;-84
2021/08/16 02:31:01;;;;;;;8.40;6.82;;;;;;;23.21;84.21;95222.31;5007623;28;20886;-88
2021/08/16 02:33:27;;;;;;;10.57;6.22;;;;;;;23.19;83.82;95213.91;5011630;28;20206;-86
2021/08/16 02:35:55;;;;;;;9.18;6.50;;;;;;;23.17;84.06;95205.50;5011948;28;20217;-85
2021/08/16 02:38:21;;;;;;;8.15;6.47;;;;;;;23.12;83.10;95208.13;5012297;28;20199;-88
2021/08/16 02:40:48;;;;;;;8.80;6.57;;;;;;;23.14;82.77;95204.19;5012411;28;20584;-86
2021/08/16 02:43:14;;;;;;;7.18;6.43;;;;;;;23.16;83.14;95211.81;5011630;28;20598;-87
2021/08/16 02:45:41;;;;;;;6.80;6.10;;;;;;;23.07;83.07;95215.00;4995913;28;20590;-88
2021/08/16 02:48:08;;;;;;;7.07;6.18;;;;;;;23.08;82.68;95223.66;5010863;28;20587;-88
2021/08/16 02:50:34;;;;;;;7.50;6.15;;;;;;;23.09;83.02;95220.75;5012202;28;20582;-85
2021/08/16 02:53:02;;;;;;;9.25;6.40;;;;;;;23.15;82.64;95221.53;5011178;28;20219;-85
2021/08/16 02:55:28;;;;;;;8.32;6.35;;;;;;;23.13;83.14;95222.84;5011826;28;20217;-86
2021/08/16 02:57:55;;;;;;;10.45;6.43;;;;;;;23.11;83.08;95224.94;5011535;28;20712;-85
2021/08/16 03:00:21;;;;;;;11.10;6.38;;;;;;;23.07;82.68;95227.34;5011256;28;20203;-88
2021/08/16 03:02:48;;;;;;;9.70;6.35;;;;;;;23.00;81.41;95232.84;5010876;28;20226;-86
2021/08/16 03:05:15;;;;;;;9.02;5.78;;;;;;;23.08;81.14;95234.16;4992827;28;20238;-87
2021/08/16 03:07:41;;;;;;;8.60;6.13;;;;;;;23.06;80.89;95239.69;5005785;28;20438;-87
2021/08/16 03:10:11;;;;;;;7.68;6.75;;;;;;;23.12;80.70;95229.94;5010920;28;20210;-84
2021/08/16 03:12:38;;;;;;;10.45;6.70;;;;;;;23.14;80.66;95230.47;5011215;28;20229;-86
2021/08/16 03:15:05;;;;;;;7.75;5.78;;;;;;;23.16;80.26;95238.09;5011478;28;20217;-86
2021/08/16 03:17:32;;;;;;;11.85;6.15;;;;;;;23.18;80.26;95234.16;5011634;28;20215;-86
2021/08/16 03:19:59;;;;;;;9.15;6.40;;;;;;;23.13;81.13;95233.34;5007190;28;20202;-86
2021/08/16 03:22:26;;;;;;;10.32;6.03;;;;;;;23.06;80.85;95231.81;5010690;28;20226;-87
2021/08/16 03:24:52;;;;;;;8.85;6.47;;;;;;;23.07;81.10;95236.00;5010998;28;20202;-86
2021/08/16 03:27:20;;;;;;;9.63;5.88;;;;;;;23.05;80.95;95243.34;5010986;28;20207;-85
2021/08/16 03:29:47;;;;;;;9.60;5.80;;;;;;;23.05;80.60;95245.19;5011306;28;20195;-86
2021/08/16 03:32:13;;;;;;;7.25;5.88;;;;;;;23.01;80.99;95239.66;5010923;28;20231;-86
2021/08/16 03:34:40;;;;;;;9.63;6.13;;;;;;;22.99;80.59;95230.47;5010911;28;20203;-86
2021/08/16 03:37:06;;;;;;;7.63;5.97;;;;;;;22.92;80.60;95228.09;5006061;28;20196;-87
2021/08/16 03:39:33;;;;;;;7.55;6.10;;;;;;;22.97;80.69;95222.84;4991444;28;20203;-88
2021/08/16 03:41:59;;;;;;;10.38;5.78;;;;;;;22.99;81.01;95222.59;4990046;28;20577;-84
2021/08/16 03:44:28;;;;;;;6.60;6.00;;;;;;;23.01;80.95;95216.03;4995290;28;20233;-84
2021/08/16 03:46:54;;;;;;;6.60;6.00;;;;;;;23.03;81.26;95221.03;5010327;28;20199;-87
2021/08/16 03:49:21;;;;;;;9.80;6.47;;;;;;;23.06;80.71;95223.91;5009397;28;20194;-86
2021/08/16 03:51:47;;;;;;;8.40;6.07;;;;;;;23.04;80.94;95230.47;5010524;28;20233;-85
2021/08/16 03:54:13;;;;;;;7.97;6.53;;;;;;;22.98;80.56;95206.06;5008618;28;20191;-83
2021/08/16 03:56:40;;;;;;;11.23;6.97;;;;;;;22.94;81.94;95205.00;5001644;28;20602;-87
2021/08/16 03:59:06;;;;;;;11.30;6.80;;;;;;;22.97;81.24;95214.19;4990386;28;20205;-83
2021/08/16 04:01:34;;;;;;;14.48;7.15;;;;;;;22.99;81.93;95215.50;5003013;28;20306;-85
2021/08/16 04:04:01;;;;;;;7.80;6.63;;;;;;;23.03;81.28;95210.53;5009458;28;20223;-86
2021/08/16 04:06:28;;;;;;;8.18;6.22;;;;;;;23.05;81.30;95203.97;5009688;28;20737;-86
2021/08/16 04:08:54;;;;;;;9.68;6.75;;;;;;;23.08;81.63;95205.28;5009817;28;20211;-86
2021/08/16 04:11:21;;;;;;;9.85;6.93;;;;;;;23.09;81.21;95212.09;5009777;28;20222;-86
2021/08/16 04:13:47;;;;;;;8.65;6.43;;;;;;;23.12;81.14;95203.66;5009104;28;20203;-85
2021/08/16 04:16:14;;;;;;;7.95;6.60;;;;;;;23.11;80.93;95194.22;5009596;28;20203;-87
2021/08/16 04:18:42;;;;;;;10.23;6.63;;;;;;;23.13;81.38;95197.38;5009305;28;20207;-86
2021/08/16 04:21:08;;;;;;;7.60;6.82;;;;;;;23.14;80.74;95180.56;5009702;28;20253;-86
2021/08/16 04:23:35;;;;;;;9.73;6.55;;;;;;;23.07;83.75;95182.69;5009742;28;20605;-88
2021/08/16 04:26:32;;;;;;;8.13;6.78;;;;;;;23.11;83.38;95186.34;5011575;28;20187;-89
2021/08/16 04:32:22;;;;;;;9.27;6.90;;;;;;;23.18;82.07;95189.50;5001703;28;20756;-89
2021/08/16 04:34:58;;;;;;;10.07;6.50;;;;;;;23.21;81.87;95191.59;5007666;28;20277;-89
2021/08/16 04:37:35;;;;;;;9.95;6.70;;;;;;;23.24;82.00;95190.28;5008474;28;20632;-90
2021/08/16 04:40:31;;;;;;;7.93;6.60;;;;;;;23.28;81.85;95193.97;5007630;28;20198;-90
2021/08/16 04:43:19;;;;;;;9.63;6.97;;;;;;;23.30;81.73;95205.75;5007951;28;20281;-90
2021/08/16 04:45:53;;;;;;;8.85;7.43;;;;;;;23.29;81.65;95217.31;5008596;28;20210;-88
2021/08/16 04:48:20;;;;;;;9.10;7.10;;;;;;;23.28;81.90;95201.84;5006225;28;20203;-87
2021/08/16 04:50:47;;;;;;;7.60;6.90;;;;;;;23.28;82.27;95194.75;5006838;28;20285;-89
2021/08/16 04:53:14;;;;;;;11.95;6.95;;;;;;;23.30;82.10;95203.13;5006679;28;20206;-89
2021/08/16 04:55:41;;;;;;;12.43;6.93;;;;;;;23.24;82.75;95213.94;5006346;28;20207;-89
2021/08/16 04:58:09;;;;;;;11.32;6.97;;;;;;;23.25;82.10;95220.75;5007426;28;20203;-90
2021/08/16 05:00:36;;;;;;;16.77;11.20;;;;;;;23.23;82.42;95230.75;5009162;28;20261;-89
2021/08/16 05:03:03;;;;;;;11.77;8.82;;;;;;;23.22;82.90;95244.91;5010964;28;20230;-89
2021/08/16 05:05:30;;;;;;;8.95;7.43;;;;;;;23.15;83.20;95255.69;5010650;28;20576;-89
2021/08/16 05:08:02;;;;;;;10.38;6.93;;;;;;;23.09;82.90;95254.88;5012546;28;20206;-88
2021/08/16 05:10:30;;;;;;;10.52;6.70;;;;;;;23.06;83.49;95246.78;5011756;28;20205;-88
2021/08/16 05:13:00;;;;;;;9.20;7.13;;;;;;;23.09;83.55;95254.88;5011323;28;20890;-88
2021/08/16 05:15:28;;;;;;;9.68;6.60;;;;;;;23.08;83.81;95278.81;5011987;28;20206;-88
2021/08/16 05:17:55;;;;;;;9.68;6.90;;;;;;;23.04;84.72;95302.19;5011733;28;20199;-87
2021/08/16 05:20:22;;;;;;;8.65;6.55;;;;;;;22.90;85.26;95316.84;5010947;28;20244;-87
2021/08/16 05:22:49;;;;;;;13.55;6.60;;;;;;;22.81;86.47;95322.88;5011198;28;20234;-88
2021/08/16 05:25:19;;;;;;;7.35;6.65;;;;;;;22.65;87.08;95319.41;5011512;28;20587;-88
2021/08/16 05:27:46;;;;;;;8.68;7.18;;;;;;;22.51;88.46;95311.22;5011679;28;20215;-87
2021/08/16 05:30:13;;;;;;;9.65;6.97;;;;;;;22.63;88.15;95300.50;5010997;28;20218;-87
2021/08/16 05:32:40;;;;;;;9.27;7.07;;;;;;;22.68;86.99;95309.19;5011055;28;20215;-87
2021/08/16 05:35:08;;;;;;;10.32;6.30;;;;;;;22.67;83.15;95309.44;5011225;28;20546;-88
2021/08/16 05:37:34;;;;;;;7.30;5.72;;;;;;;22.73;82.15;95309.16;5011333;28;20202;-88
2021/08/16 05:40:05;;;;;;;12.95;5.82;;;;;;;22.78;81.28;95323.38;5011286;28;20864;-87
2021/08/16 05:42:33;;;;;;;11.65;6.25;;;;;;;22.72;81.62;95339.09;5010707;28;20223;-88
2021/08/16 05:45:02;;;;;;;6.65;5.68;;;;;;;22.75;81.22;95335.16;5010892;28;20319;-88
2021/08/16 05:47:28;;;;;;;7.35;5.75;;;;;;;22.77;80.43;95343.59;5011188;28;20724;-87
2021/08/16 05:49:55;;;;;;;6.75;5.65;;;;;;;22.73;79.60;95335.41;5011291;28;20584;-88
2021/08/16 05:52:21;;;;;;;6.68;5.18;;;;;;;22.71;77.68;95347.22;5010454;28;20231;-88
2021/08/16 05:54:48;;;;;;;7.47;4.93;;;;;;;22.71;77.83;95352.47;5010825;28;20195;-88
2021/08/16 05:57:14;;;;;;;7.15;4.88;;;;;;;22.64;76.93;95347.47;5010708;28;20211;-88
2021/08/16 05:59:42;;;;;;;6.88;5.32;;;;;;;22.59;77.74;95365.03;5010801;28;20203;-88
2021/08/16 06:02:08;;;;;;;8.05;5.15;;;;;;;22.58;77.95;95366.88;5011023;28;20227;-87
2021/08/16 06:04:35;;;;;;;6.40;4.85;;;;;;;22.50;77.19;95363.97;5010325;28;20231;-88
2021/08/16 06:07:02;;;;;;;6.60;5.20;;;;;;;22.36;77.12;95361.00;5011360;28;20226;-87
2021/08/16 06:09:29;;;;;;;7.70;5.15;;;;;;;22.42;78.49;95359.19;5011407;28;20566;-87
2021/08/16 06:11:56;;;;;;;8.43;4.85;;;;;;;22.32;77.55;95358.09;5010756;28;20227;-88
2021/08/16 06:14:22;;;;;;;5.97;4.97;;;;;;;22.32;77.45;95350.22;5010073;28;20199;-88
2021/08/16 06:16:50;;;;;;;6.15;4.88;;;;;;;22.29;76.65;95344.72;5010572;28;20209;-87
2021/08/16 06:19:16;;;;;;;6.65;5.13;;;;;;;22.40;76.93;95347.13;5010463;28;20207;-88
2021/08/16 06:21:43;;;;;;;6.40;4.22;;;;;;;22.46;76.50;95345.31;5010270;28;20222;-88
2021/08/16 06:24:10;;;;;;;7.28;4.50;;;;;;;22.44;76.19;95325.63;5010225;28;20230;-87
2021/08/16 06:26:37;;;;;;;4.60;4.13;;;;;;;22.46;76.02;95321.69;5010815;28;20210;-87
2021/08/16 06:29:04;;;;;;;5.75;4.65;;;;;;;22.44;76.97;95313.28;5011399;28;20197;-88
2021/08/16 06:31:30;;;;;;;7.90;4.80;;;;;;;22.50;76.35;95322.78;5011924;28;20223;-88
2021/08/16 06:33:59;;;;;;;6.13;4.20;;;;;;;22.56;76.13;95323.56;5011049;28;20203;-87
2021/08/16 06:36:25;;;;;;;5.90;4.78;;;;;;;22.59;76.29;95315.97;5011217;28;20207;-88
2021/08/16 06:38:52;;;;;;;5.95;4.40;;;;;;;22.69;76.56;95304.72;5010938;28;20207;-87
2021/08/16 06:41:19;;;;;;;6.50;4.47;;;;;;;22.73;76.80;95300.50;5010753;28;20230;-87
2021/08/16 06:43:47;;;;;;;5.30;4.47;;;;;;;22.84;75.11;95301.38;5009915;28;20250;-88
2021/08/16 06:46:14;;;;;;;6.82;3.97;;;;;;;22.87;74.94;95306.09;5011314;28;20207;-87
2021/08/16 06:48:41;;;;;;;7.20;4.15;;;;;;;22.78;74.71;95297.94;5012121;28;20269;-89
2021/08/16 06:51:09;;;;;;;5.07;4.22;;;;;;;22.74;75.63;95302.09;5011120;28;20258;-87
2021/08/16 06:53:35;;;;;;;5.72;4.13;;;;;;;22.78;74.33;95300.56;5014386;28;20202;-88
2021/08/16 06:56:02;;;;;;;6.07;4.00;;;;;;;22.86;75.25;95307.94;5010465;28;20244;-88
2021/08/16 06:58:28;;;;;;;4.95;4.32;;;;;;;22.86;74.22;95310.56;5012307;28;20577;-87
2021/08/16 07:00:54;;;;;;;5.82;4.10;;;;;;;22.91;74.68;95309.75;5010725;28;20598;-88
2021/08/16 07:03:21;;;;;;;6.05;3.83;;;;;;;23.01;73.96;95307.16;5010519;28;20227;-87
2021/08/16 07:05:47;;;;;;;4.95;4.00;;;;;;;23.14;73.33;95308.47;5010582;28;20253;-88
2021/08/16 07:08:15;;;;;;;5.35;3.92;;;;;;;23.29;73.35;95301.38;5010429;28;20207;-87
2021/08/16 07:10:43;;;;;;;5.70;4.10;;;;;;;23.40;73.38;95300.34;5009897;28;20201;-87
2021/08/16 07:13:10;;;;;;;4.28;3.78;;;;;;;23.52;73.16;95302.72;5009820;28;20760;-87
2021/08/16 07:15:37;;;;;;;4.00;3.60;;;;;;;23.63;73.49;95316.66;5010527;28;20256;-88
2021/08/16 07:18:04;;;;;;;4.13;3.50;;;;;;;23.71;73.86;95316.09;5010992;28;20195;-87
2021/08/16 07:20:31;;;;;;;4.57;3.50;;;;;;;23.65;72.70;95301.41;5011448;28;20206;-88
2021/08/16 07:22:58;;;;;;;4.15;3.75;;;;;;;23.68;72.73;95306.91;5010149;28;20235;-87
2021/08/16 07:25:26;;;;;;;4.55;3.67;;;;;;;23.80;73.08;95314.53;5011545;28;20199;-87
2021/08/16 07:27:52;;;;;;;3.70;3.40;;;;;;;23.91;73.26;95313.44;5010870;28;20203;-87
2021/08/16 07:30:19;;;;;;;6.75;3.83;;;;;;;24.00;72.00;95322.38;5011893;28;20579;-87
2021/08/16 07:32:45;;;;;;;3.60;3.20;;;;;;;24.01;72.21;95316.06;5011411;28;20227;-88
2021/08/16 07:35:12;;;;;;;4.22;3.78;;;;;;;24.14;72.60;95312.06;5011332;28;20202;-87
2021/08/16 07:37:38;;;;;;;4.00;3.70;;;;;;;23.95;70.91;95309.22;5012906;28;20199;-87
2021/08/16 07:40:06;;;;;;;4.07;3.30;;;;;;;24.05;71.94;95313.69;5011542;28;20574;-88
2021/08/16 07:42:34;;;;;;;4.93;3.85;;;;;;;24.09;72.58;95319.97;5007854;28;20223;-88
2021/08/16 07:45:00;;;;;;;5.75;3.67;;;;;;;24.17;72.89;95321.28;5009959;28;20218;-87
2021/08/16 07:47:27;;;;;;;4.38;3.70;;;;;;;24.19;73.32;95316.53;5010411;28;20201;-88
2021/08/16 07:49:53;;;;;;;3.70;3.40;;;;;;;24.22;72.39;95322.06;5010415;28;20198;-88
2021/08/16 07:52:20;;;;;;;4.93;3.40;;;;;;;24.25;72.37;95326.78;5009380;28;20222;-88
2021/08/16 07:54:46;;;;;;;3.95;3.53;;;;;;;24.12;71.54;95327.34;5009423;28;20199;-87
2021/08/16 07:57:13;;;;;;;3.50;3.25;;;;;;;24.25;72.20;95326.00;5009798;28;20218;-88
2021/08/16 07:59:41;;;;;;;4.35;3.70;;;;;;;24.14;72.04;95327.84;5009807;28;20230;-88
2021/08/16 08:02:07;;;;;;;4.55;3.42;;;;;;;24.13;72.15;95333.38;5008327;28;20219;-88
2021/08/16 08:04:34;;;;;;;4.57;3.60;;;;;;;24.23;72.48;95331.53;5008890;28;20864;-88
2021/08/16 08:07:01;;;;;;;5.15;3.75;;;;;;;24.29;72.44;95325.19;5008624;28;20226;-88
2021/08/16 08:09:28;;;;;;;4.10;3.70;;;;;;;24.33;71.42;95336.78;5010299;28;20276;-87
2021/08/16 08:11:54;;;;;;;3.80;3.40;;;;;;;24.29;71.38;95333.09;5009625;28;20225;-88
2021/08/16 08:14:21;;;;;;;4.40;3.78;;;;;;;24.34;71.86;95334.94;5009965;28;20203;-88
2021/08/16 08:16:49;;;;;;;6.15;3.80;;;;;;;24.36;71.57;95328.34;5009375;28;20839;-88
2021/08/16 08:19:15;;;;;;;4.80;4.00;;;;;;;24.36;71.83;95335.44;5010446;28;20214;-87
2021/08/16 08:21:42;;;;;;;4.40;4.00;;;;;;;24.20;71.74;95329.41;5008826;28;20680;-87
2021/08/16 08:24:08;;;;;;;3.80;3.50;;;;;;;24.25;72.22;95334.69;5008426;28;20234;-87
2021/08/16 08:26:35;;;;;;;5.47;3.70;;;;;;;24.24;72.71;95346.28;5009177;28;20195;-88
2021/08/16 08:29:01;;;;;;;3.92;3.67;;;;;;;24.19;72.44;95348.91;5009224;28;20670;-87
2021/08/16 08:31:28;;;;;;;4.72;3.85;;;;;;;24.12;72.85;95345.75;5010210;28;20310;-87
2021/08/16 08:33:55;;;;;;;5.00;4.20;;;;;;;24.08;72.33;95339.44;5009719;28;20550;-88
2021/08/16 08:36:22;;;;;;;4.90;3.70;;;;;;;24.12;72.86;95337.84;5012253;28;20202;-87
2021/08/16 08:38:48;;;;;;;4.63;4.07;;;;;;;24.01;73.25;95347.63;5013353;28;20589;-87
2021/08/16 08:41:18;;;;;;;4.05;3.67;;;;;;;23.97;73.61;95343.94;5013116;28;20218;-87
2021/08/16 08:43:48;;;;;;;4.32;3.90;;;;;;;24.02;74.01;95356.31;5012272;28;20222;-87
2021/08/16 08:46:14;;;;;;;6.88;4.10;;;;;;;23.92;73.60;95354.47;5013847;28;20211;-87
2021/08/16 08:48:41;;;;;;;4.30;3.90;;;;;;;23.89;74.32;95352.38;5013447;28;20230;-87
2021/08/16 08:51:09;;;;;;;5.57;4.05;;;;;;;23.83;74.54;95352.66;5013505;28;20226;-88
2021/08/16 08:53:35;;;;;;;5.93;4.00;;;;;;;23.85;73.84;95351.34;5013216;28;20213;-88
2021/08/16 08:56:04;;;;;;;5.25;3.97;;;;;;;23.86;74.38;95349.50;5013228;28;20859;-87
2021/08/16 08:58:31;;;;;;;4.18;3.88;;;;;;;23.89;74.30;95354.22;5013467;28;20213;-87
2021/08/16 09:00:57;;;;;;;4.35;3.95;;;;;;;23.93;74.31;95353.41;5012760;28;20724;-89
2021/08/16 09:03:24;;;;;;;4.70;4.30;;;;;;;23.83;74.48;95357.91;5013449;28;20232;-87
2021/08/16 09:05:52;;;;;;;7.28;4.28;;;;;;;23.84;74.49;95354.22;5012641;28;20246;-87
2021/08/16 09:08:28;;;;;;;4.60;4.20;;;;;;;23.84;74.60;95359.50;5013671;28;20210;-87
2021/08/16 09:11:06;;;;;;;5.53;4.50;;;;;;;23.88;75.11;95355.25;5013445;28;20202;-87
2021/08/16 09:13:33;;;;;;;5.35;4.13;;;;;;;23.97;74.64;95353.69;5012510;28;20212;-87
2021/08/16 09:16:08;;;;;;;4.50;4.10;;;;;;;23.90;75.59;95358.41;5012925;28;20198;-87
2021/08/16 09:18:35;;;;;;;5.32;4.82;;;;;;;23.82;75.83;95351.88;5012768;28;20195;-89
2021/08/16 09:21:01;;;;;;;4.88;4.40;;;;;;;23.82;75.34;95348.44;5008191;28;20203;-88
2021/08/16 09:23:40;;;;;;;5.28;4.70;;;;;;;23.85;75.12;95338.19;5012056;28;20199;-88
2021/08/16 09:26:10;;;;;;;6.18;4.43;;;;;;;23.75;75.28;95338.97;5013806;28;20281;-87
2021/08/16 09:28:36;;;;;;;6.05;4.32;;;;;;;23.75;75.12;95338.19;5014246;28;20281;-88
2021/08/16 09:31:11;;;;;;;4.50;4.10;;;;;;;23.74;75.35;95337.41;5014899;28;20210;-86
2021/08/16 09:33:38;;;;;;;5.82;4.40;;;;;;;23.63;75.71;95330.59;5015789;28;20210;-87
2021/08/16 09:36:04;;;;;;;6.05;4.15;;;;;;;23.52;75.94;95330.84;5016030;28;20210;-87
2021/08/16 09:38:34;;;;;;;4.90;4.40;;;;;;;23.66;76.28;95335.31;5012630;28;20547;-87
2021/08/16 09:41:01;;;;;;;5.55;4.60;;;;;;;23.59;76.25;95326.13;5013998;28;20250;-88
2021/08/16 09:43:28;;;;;;;8.07;4.53;;;;;;;23.62;76.35;95326.38;5013647;28;20229;-87
2021/08/16 09:45:55;;;;;;;5.13;4.60;;;;;;;23.55;78.86;95325.06;5015496;28;20223;-86
2021/08/16 09:48:23;;;;;;;4.85;4.45;;;;;;;23.53;80.30;95324.53;5014468;28;20206;-88
2021/08/16 09:50:51;;;;;;;5.93;4.97;;;;;;;23.56;79.86;95332.69;5017786;28;20207;-88
2021/08/16 09:53:19;;;;;;;5.35;4.85;;;;;;;23.46;82.91;95335.31;5026316;28;20199;-88
2021/08/16 09:55:48;;;;;;;6.75;5.05;;;;;;;23.50;83.18;95340.78;5029403;28;20827;-87
2021/08/16 09:58:17;;;;;;;6.30;5.20;;;;;;;23.52;84.73;95349.25;5024282;28;20202;-88
2021/08/16 10:00:45;;;;;;;5.50;5.00;;;;;;;23.74;83.29;95353.19;5026872;28;20199;-88
2021/08/16 10:03:12;;;;;;;5.40;4.90;;;;;;;23.87;84.99;95346.56;5020095;28;20230;-87
2021/08/16 10:05:40;;;;;;;5.22;4.82;;;;;;;23.87;84.25;95351.84;5012054;28;20234;-87
2021/08/16 10:08:08;;;;;;;5.82;5.18;;;;;;;23.90;84.20;95350.53;5011552;28;20207;-88
2021/08/16 10:10:36;;;;;;;6.18;5.13;;;;;;;23.81;84.61;95354.75;5012065;28;20202;-87
2021/08/16 10:13:06;;;;;;;6.35;5.63;;;;;;;23.56;85.48;95366.84;5011325;28;20229;-87
2021/08/16 10:15:40;;;;;;;8.15;6.15;;;;;;;23.36;83.43;95369.44;5011825;28;20819;-87
2021/08/16 10:18:11;;;;;;;7.85;6.47;;;;;;;23.20;81.73;95367.84;5011224;28;20214;-87
2021/08/16 10:20:39;;;;;;;7.35;6.68;;;;;;;23.16;81.67;95364.16;5011515;28;20582;-87
2021/08/16 10:23:16;;;;;;;7.10;6.30;;;;;;;23.11;82.69;95356.28;5010779;28;20313;-88
2021/08/16 10:25:44;;;;;;;6.93;6.32;;;;;;;23.20;79.65;95347.63;5010359;28;20718;-87
2021/08/16 10:28:23;;;;;;;6.28;5.60;;;;;;;23.26;82.90;95343.97;5010598;28;20682;-87
2021/08/16 10:30:50;;;;;;;6.38;5.55;;;;;;;23.34;82.21;95355.78;5011446;28;20618;-87
2021/08/16 10:33:17;;;;;;;6.18;5.63;;;;;;;23.39;80.57;95346.06;5010463;28;20611;-87
2021/08/16 10:35:44;;;;;;;7.15;5.63;;;;;;;23.34;81.01;95348.69;5010096;28;20233;-88
2021/08/16 10:38:15;;;;;;;6.60;5.90;;;;;;;23.29;80.00;95356.56;4990721;28;20195;-87
2021/08/16 10:40:56;;;;;;;;;;;;;;;;;;;;;
2021/08/16 10:43:43;;;;;;;6.82;6.22;;;;;;;23.14;80.34;95371.50;5024949;23;20313;-88
2021/08/16 10:46:22;;;;;;;8.82;6.75;;;;;;;23.03;82.69;95370.72;5010111;28;20601;-87
2021/08/16 10:49:17;;;;;;;7.13;6.43;;;;;;;23.08;81.94;95366.28;5009686;28;20199;-88
2021/08/16 10:52:30;;;;;;;7.97;6.90;;;;;;;23.12;81.85;95345.50;5010517;28;20226;-88
2021/08/16 10:58:52;;;;;;;7.75;7.10;;;;;;;23.11;85.15;95337.88;4998773;28;20217;-88
2021/08/16 11:05:05;;;;;;;8.48;7.68;;;;;;;22.82;85.38;95335.75;4998955;28;20674;-88
2021/08/16 11:07:57;;;;;;;8.23;7.43;;;;;;;22.85;84.54;95329.19;4983730;28;20241;-87
2021/08/16 11:10:51;;;;;;;8.80;7.95;;;;;;;22.81;87.06;95328.91;5001401;28;20207;-88
2021/08/16 11:13:43;;;;;;;9.85;7.78;;;;;;;22.78;86.50;95332.06;5009505;28;20662;-87
2021/08/16 11:20:15;;;;;;;8.68;7.88;;;;;;;22.67;91.02;95322.56;4987205;28;20209;-87
2021/08/16 11:22:46;;;;;;;10.00;9.00;;;;;;;22.72;91.02;95318.09;5009396;28;20234;-87
2021/08/16 11:28:16;;;;;;;10.43;8.45;;;;;;;22.92;89.41;95330.50;5001409;28;20207;-88
2021/08/16 11:30:51;;;;;;;10.32;8.50;;;;;;;22.93;87.75;95333.91;5009173;28;20207;-87
2021/08/16 11:36:48;;;;;;;9.20;8.35;;;;;;;23.11;84.89;95330.78;5008935;28;20245;-88
2021/08/16 11:39:53;;;;;;;9.82;8.65;;;;;;;23.06;85.81;95321.09;4988175;28;20216;-88
2021/08/16 11:42:22;;;;;;;9.50;8.60;;;;;;;23.09;86.03;95322.41;5010797;28;20650;-87
2021/08/16 11:45:05;;;;;;;9.45;8.30;;;;;;;23.17;85.30;95326.34;5009073;28;20218;-88
2021/08/16 11:47:50;;;;;;;8.90;8.07;;;;;;;23.20;84.85;95325.81;5009310;28;20214;-87
2021/08/16 11:50:24;;;;;;;10.00;8.25;;;;;;;23.24;83.92;95327.69;5008424;28;20194;-87
2021/08/16 11:52:59;;;;;;;9.52;8.63;;;;;;;23.23;83.89;95331.34;5008704;28;20225;-87
2021/08/16 11:55:32;;;;;;;9.60;8.60;;;;;;;23.17;84.65;95329.75;5009930;28;20220;-89
2021/08/16 11:58:01;;;;;;;10.00;9.10;;;;;;;23.13;85.06;95320.81;5009391;28;20737;-87
2021/08/16 12:00:50;;;;;;;10.95;8.98;;;;;;;23.07;84.78;95332.38;5009093;28;20242;-88
2021/08/16 12:03:34;;;;;;;10.05;9.10;;;;;;;23.08;85.11;95347.09;5008454;28;20206;-88